Time;durP1;ratioP1;P1;durP2;ratioP2;P2;SDS_P1;SDS_P2;PMS_P1;PMS_P2;Temp;Humidity;BMP_temperature;BMP_pressure;BME280_temperature;BME280_humidity;BME280_pressure;Samples;Min_cycle;Max_cycle;Signal;HPM_P1;HPM_P2
2021/10/14 00:01:20;;;;;;;7.37;6.37;;;7.20;99.90;;;;;;5091984;28;20690;-67
2021/10/14 00:03:46;;;;;;;8.63;5.93;;;7.20;99.90;;;;;;5091982;28;20583;-66
2021/10/14 00:06:13;;;;;;;8.97;7.13;;;7.20;99.90;;;;;;5091685;28;20212;-66
2021/10/14 00:08:40;;;;;;;8.20;6.47;;;7.20;99.90;;;;;;5091999;28;20204;-65
2021/10/14 00:11:07;;;;;;;8.00;7.07;;;7.20;99.90;;;;;;5092175;28;20618;-65
2021/10/14 00:13:35;;;;;;;7.90;7.07;;;7.20;99.90;;;;;;5091823;28;20232;-66
2021/10/14 00:16:02;;;;;;;7.70;6.63;;;7.20;99.90;;;;;;5091984;28;20211;-66
2021/10/14 00:18:28;;;;;;;7.20;6.50;;;7.10;99.90;;;;;;5091682;28;20223;-65
2021/10/14 00:20:55;;;;;;;8.00;6.37;;;7.10;99.90;;;;;;5091709;28;20208;-66
2021/10/14 00:23:22;;;;;;;7.30;6.43;;;7.10;99.90;;;;;;5091323;28;20228;-66
2021/10/14 00:25:49;;;;;;;10.87;6.47;;;7.10;99.90;;;;;;5092023;28;20581;-66
2021/10/14 00:28:15;;;;;;;7.60;6.57;;;7.00;99.90;;;;;;5091586;28;20261;-64
2021/10/14 00:30:43;;;;;;;11.77;6.40;;;7.00;99.90;;;;;;5091946;28;20208;-64
2021/10/14 00:33:10;;;;;;;7.57;5.80;;;7.00;99.90;;;;;;5092251;28;20224;-66
2021/10/14 00:35:37;;;;;;;9.13;6.63;;;7.00;99.90;;;;;;5091818;28;20548;-66
2021/10/14 00:38:04;;;;;;;9.60;6.07;;;7.00;99.90;;;;;;5092015;28;20548;-66
2021/10/14 00:40:31;;;;;;;9.23;6.03;;;7.10;99.90;;;;;;5091471;28;20204;-66
2021/10/14 00:42:58;;;;;;;9.23;6.07;;;7.10;99.90;;;;;;5091729;28;20224;-67
2021/10/14 00:45:24;;;;;;;6.77;5.77;;;7.20;99.90;;;;;;5091553;28;20207;-66
2021/10/14 00:47:52;;;;;;;7.77;6.10;;;7.20;99.90;;;;;;5091937;28;20200;-67
2021/10/14 00:50:19;;;;;;;11.87;6.20;;;7.20;99.90;;;;;;5091572;28;20620;-66
2021/10/14 00:52:46;;;;;;;8.50;5.80;;;7.30;99.90;;;;;;5091119;28;20234;-66
2021/10/14 00:55:15;;;;;;;7.00;4.97;;;7.40;99.90;;;;;;5091317;28;20220;-65
2021/10/14 00:57:41;;;;;;;5.43;4.40;;;7.40;99.90;;;;;;5091333;28;20265;-66
2021/10/14 01:00:09;;;;;;;8.27;4.40;;;7.40;99.90;;;;;;5091398;28;20294;-66
2021/10/14 01:02:36;;;;;;;6.50;4.20;;;7.30;99.90;;;;;;5091480;28;20224;-66
2021/10/14 01:05:05;;;;;;;5.97;3.80;;;7.20;99.90;;;;;;5091004;28;20645;-67
2021/10/14 01:07:32;;;;;;;5.83;4.63;;;7.20;99.90;;;;;;5091498;28;20207;-67
2021/10/14 01:09:59;;;;;;;7.10;5.30;;;7.10;99.90;;;;;;5091883;28;20207;-66
2021/10/14 01:12:25;;;;;;;6.57;5.57;;;7.00;99.90;;;;;;5091442;28;20704;-67
2021/10/14 01:14:52;;;;;;;7.50;5.43;;;6.90;99.90;;;;;;5091199;28;20303;-66
2021/10/14 01:17:19;;;;;;;7.10;5.90;;;6.80;99.90;;;;;;5091300;28;20243;-67
2021/10/14 01:19:48;;;;;;;8.07;5.70;;;6.80;99.90;;;;;;5091202;28;20209;-67
2021/10/14 01:22:15;;;;;;;6.77;5.67;;;6.70;99.90;;;;;;5092480;28;20215;-67
2021/10/14 01:24:42;;;;;;;8.27;5.90;;;6.70;99.90;;;;;;5091929;28;20605;-68
2021/10/14 01:27:10;;;;;;;6.93;5.80;;;6.70;99.90;;;;;;5092188;28;20230;-67
2021/10/14 01:29:37;;;;;;;6.47;5.57;;;6.70;99.90;;;;;;5091386;28;20680;-67
2021/10/14 01:32:05;;;;;;;6.50;5.73;;;6.60;99.90;;;;;;5091015;28;20231;-67
2021/10/14 01:34:32;;;;;;;7.33;5.97;;;6.70;99.90;;;;;;5090830;28;20692;-66
2021/10/14 01:37:00;;;;;;;6.73;5.73;;;6.60;99.90;;;;;;5091539;28;20205;-68
2021/10/14 01:39:27;;;;;;;5.97;5.37;;;6.60;99.90;;;;;;5091210;28;20204;-67
2021/10/14 01:41:54;;;;;;;7.43;5.63;;;6.50;99.90;;;;;;5090967;28;20605;-65
2021/10/14 01:44:21;;;;;;;7.93;5.43;;;6.40;99.90;;;;;;5090825;28;20596;-66
2021/10/14 01:46:48;;;;;;;8.10;5.37;;;6.30;99.90;;;;;;5091121;28;20201;-65
2021/10/14 01:49:14;;;;;;;8.07;5.73;;;6.30;99.90;;;;;;5090723;28;20680;-65
2021/10/14 01:51:41;;;;;;;6.43;5.23;;;6.30;99.90;;;;;;5091767;28;20204;-66
2021/10/14 01:54:09;;;;;;;7.60;5.17;;;6.30;99.90;;;;;;5094797;28;20224;-66
2021/10/14 01:56:36;;;;;;;6.73;5.00;;;6.30;99.90;;;;;;5094888;28;20208;-67
2021/10/14 01:59:03;;;;;;;6.47;5.17;;;6.30;99.90;;;;;;5094482;28;20207;-66
2021/10/14 02:01:29;;;;;;;6.00;5.30;;;6.30;99.90;;;;;;5094279;28;20285;-65
2021/10/14 02:03:56;;;;;;;13.20;9.37;;;6.20;99.90;;;;;;5094507;28;20287;-66
2021/10/14 02:06:23;;;;;;;7.47;5.57;;;6.20;99.90;;;;;;5095138;28;20257;-66
2021/10/14 02:08:49;;;;;;;7.27;5.80;;;6.10;99.90;;;;;;5094419;28;20737;-66
2021/10/14 02:11:18;;;;;;;7.67;5.47;;;6.10;99.90;;;;;;5094678;28;20655;-67
2021/10/14 02:13:44;;;;;;;5.73;4.83;;;6.10;99.90;;;;;;5094578;28;20305;-66
2021/10/14 02:16:11;;;;;;;6.57;5.33;;;6.10;99.90;;;;;;5094604;28;20211;-66
2021/10/14 02:18:38;;;;;;;6.33;4.70;;;6.00;99.90;;;;;;5094111;28;20629;-66
2021/10/14 02:21:04;;;;;;;5.67;4.67;;;6.00;99.90;;;;;;5094132;28;20208;-66
2021/10/14 02:23:31;;;;;;;5.57;4.50;;;6.00;99.90;;;;;;5093780;28;20228;-66
2021/10/14 02:25:58;;;;;;;6.13;5.17;;;6.00;99.90;;;;;;5094146;28;20208;-66
2021/10/14 02:28:26;;;;;;;5.73;4.70;;;6.00;99.90;;;;;;5094252;28;20224;-66
2021/10/14 02:30:52;;;;;;;6.73;4.57;;;6.00;99.90;;;;;;5093950;28;20204;-66
2021/10/14 02:33:19;;;;;;;9.17;4.97;;;6.00;99.90;;;;;;5093698;28;20236;-66
2021/10/14 02:35:46;;;;;;;5.80;4.83;;;6.00;99.90;;;;;;5093836;28;20228;-66
2021/10/14 02:38:12;;;;;;;6.63;4.60;;;5.90;99.90;;;;;;5093525;28;20664;-66
2021/10/14 02:40:40;;;;;;;5.80;4.47;;;5.90;99.90;;;;;;5093677;28;20583;-67
2021/10/14 02:43:07;;;;;;;5.93;5.10;;;5.90;99.90;;;;;;5093469;28;20232;-66
2021/10/14 02:45:35;;;;;;;5.33;4.67;;;5.80;99.90;;;;;;5093522;28;20208;-66
2021/10/14 02:48:02;;;;;;;6.17;4.60;;;5.70;99.90;;;;;;5093601;28;20216;-66
2021/10/14 02:50:28;;;;;;;5.23;4.73;;;5.60;99.90;;;;;;5093550;28;20543;-67
2021/10/14 02:52:55;;;;;;;5.13;3.97;;;5.60;99.90;;;;;;5093398;28;20671;-66
2021/10/14 02:55:22;;;;;;;5.87;4.87;;;5.70;99.90;;;;;;5093436;28;20227;-66
2021/10/14 02:57:49;;;;;;;6.40;4.90;;;5.70;99.90;;;;;;5094317;28;20204;-66
2021/10/14 03:00:15;;;;;;;5.77;5.00;;;5.80;99.90;;;;;;5093820;28;20212;-66
2021/10/14 03:02:43;;;;;;;6.60;5.40;;;5.90;99.90;;;;;;5093077;28;20228;-66
2021/10/14 03:05:10;;;;;;;5.33;4.83;;;5.90;99.90;;;;;;5093398;28;20204;-66
2021/10/14 03:07:37;;;;;;;5.40;4.73;;;6.00;99.90;;;;;;5092984;28;20255;-66
2021/10/14 03:10:04;;;;;;;7.43;5.73;;;6.10;99.90;;;;;;5093000;28;20220;-66
2021/10/14 03:12:31;;;;;;;5.80;4.73;;;6.20;99.90;;;;;;5093371;28;20227;-66
2021/10/14 03:14:57;;;;;;;7.13;5.10;;;6.30;99.90;;;;;;5093292;28;20224;-67
2021/10/14 03:17:24;;;;;;;5.90;4.60;;;6.20;99.90;;;;;;5093587;28;20200;-66
2021/10/14 03:19:52;;;;;;;5.40;4.30;;;6.10;99.90;;;;;;5093238;28;20200;-67
2021/10/14 03:22:19;;;;;;;5.90;4.53;;;6.10;99.90;;;;;;5092928;28;20734;-65
2021/10/14 03:24:45;;;;;;;6.77;4.77;;;6.10;99.90;;;;;;5093519;28;20204;-66
2021/10/14 03:27:12;;;;;;;4.63;3.97;;;6.00;99.90;;;;;;5093058;28;20204;-66
2021/10/14 03:29:39;;;;;;;5.00;4.50;;;5.80;99.90;;;;;;5092729;28;20201;-66
2021/10/14 03:32:06;;;;;;;5.57;4.30;;;5.70;99.90;;;;;;5092488;28;20298;-64
2021/10/14 03:34:33;;;;;;;4.47;3.97;;;5.70;99.90;;;;;;5092827;28;20626;-66
2021/10/14 03:37:01;;;;;;;6.00;4.37;;;5.70;99.90;;;;;;5092401;28;20668;-65
2021/10/14 03:39:28;;;;;;;5.30;4.70;;;5.70;99.90;;;;;;5092610;28;20586;-65
2021/10/14 03:41:55;;;;;;;4.70;4.23;;;5.80;99.90;;;;;;5093007;28;20273;-65
2021/10/14 03:44:21;;;;;;;6.50;4.37;;;5.80;99.90;;;;;;5092111;28;20699;-67
2021/10/14 03:46:48;;;;;;;6.63;4.67;;;5.80;99.90;;;;;;5092454;28;20212;-65
2021/10/14 03:49:15;;;;;;;4.97;3.83;;;5.70;99.90;;;;;;5092045;28;20212;-66
2021/10/14 03:51:42;;;;;;;5.30;4.30;;;5.80;99.90;;;;;;5091965;28;20208;-66
2021/10/14 03:54:10;;;;;;;4.73;4.20;;;5.80;99.90;;;;;;5091751;28;20281;-65
2021/10/14 03:56:36;;;;;;;5.40;4.20;;;5.80;99.90;;;;;;5092213;28;20265;-67
2021/10/14 03:59:03;;;;;;;5.00;4.30;;;5.80;99.90;;;;;;5092363;28;20208;-65
2021/10/14 04:01:30;;;;;;;6.67;4.97;;;5.90;99.90;;;;;;5092037;28;20212;-66
2021/10/14 04:03:57;;;;;;;5.10;4.60;;;5.90;99.90;;;;;;5091706;28;20247;-66
2021/10/14 04:06:23;;;;;;;10.53;9.10;;;6.00;99.90;;;;;;5091743;28;20212;-65
2021/10/14 04:08:50;;;;;;;27.77;24.77;;;6.20;99.90;;;;;;5091936;28;20208;-68
2021/10/14 04:11:18;;;;;;;7.47;6.77;;;6.00;99.90;;;;;;5091897;28;20212;-66
2021/10/14 04:13:45;;;;;;;5.70;4.93;;;6.10;99.90;;;;;;5091222;28;20220;-66
2021/10/14 04:16:11;;;;;;;5.10;4.20;;;6.20;99.90;;;;;;5091100;28;20642;-65
2021/10/14 04:18:38;;;;;;;4.63;4.10;;;6.30;99.90;;;;;;5092213;28;20208;-66
2021/10/14 04:21:05;;;;;;;5.03;4.10;;;6.30;99.90;;;;;;5091812;28;20212;-66
2021/10/14 04:23:32;;;;;;;4.47;3.97;;;6.40;99.90;;;;;;5092234;28;20227;-65
2021/10/14 04:25:59;;;;;;;4.33;3.93;;;6.40;99.90;;;;;;5091366;28;20204;-67
2021/10/14 04:28:27;;;;;;;5.53;4.20;;;6.40;99.90;;;;;;5091308;28;20625;-67
2021/10/14 04:30:53;;;;;;;4.50;4.10;;;6.50;99.90;;;;;;5091738;28;20200;-67
2021/10/14 04:33:20;;;;;;;4.60;4.10;;;6.60;99.90;;;;;;5091313;28;20236;-67
2021/10/14 04:35:47;;;;;;;5.00;4.40;;;6.60;99.90;;;;;;5091956;28;20224;-67
2021/10/14 04:38:16;;;;;;;5.20;4.40;;;6.70;99.90;;;;;;5092487;28;20211;-67
2021/10/14 04:40:43;;;;;;;5.97;3.97;;;6.70;99.90;;;;;;5091552;28;20211;-67
2021/10/14 04:43:10;;;;;;;4.73;4.00;;;6.70;99.90;;;;;;5092017;28;20480;-67
2021/10/14 04:45:38;;;;;;;4.77;4.10;;;6.70;99.90;;;;;;5091716;28;20200;-67
2021/10/14 04:48:05;;;;;;;5.13;4.63;;;6.70;99.90;;;;;;5091502;28;20211;-67
2021/10/14 04:50:31;;;;;;;5.10;4.30;;;6.80;99.90;;;;;;5091910;28;20672;-67
2021/10/14 04:52:58;;;;;;;4.73;4.20;;;6.90;99.90;;;;;;5091855;28;20608;-67
2021/10/14 04:55:25;;;;;;;4.97;4.47;;;7.00;99.90;;;;;;5091814;28;20224;-67
2021/10/14 04:57:51;;;;;;;4.70;4.10;;;7.00;99.90;;;;;;5091587;28;20212;-66
2021/10/14 05:00:18;;;;;;;6.73;3.60;;;7.00;99.90;;;;;;5092054;28;20211;-66
2021/10/14 05:02:46;;;;;;;4.77;3.90;;;7.00;99.90;;;;;;5091787;28;20224;-67
2021/10/14 05:05:13;;;;;;;5.27;4.10;;;7.00;99.90;;;;;;5091434;28;20200;-66
2021/10/14 05:07:40;;;;;;;5.60;4.13;;;7.00;99.90;;;;;;5091164;28;20207;-66
2021/10/14 05:10:07;;;;;;;4.50;4.10;;;7.00;99.90;;;;;;5093978;28;20208;-66
2021/10/14 05:12:35;;;;;;;5.10;4.10;;;6.90;99.90;;;;;;5091127;28;20224;-66
2021/10/14 05:15:05;;;;;;;7.37;4.03;;;6.90;99.90;;;;;;5090968;28;20216;-66
2021/10/14 05:17:32;;;;;;;5.50;4.80;;;6.80;99.90;;;;;;5091425;28;20265;-66
2021/10/14 05:20:00;;;;;;;4.90;4.40;;;7.00;99.90;;;;;;5091084;28;20207;-65
2021/10/14 05:22:27;;;;;;;5.87;4.93;;;7.10;99.90;;;;;;5091310;28;20641;-65
2021/10/14 05:24:53;;;;;;;7.23;4.70;;;7.10;99.90;;;;;;5091452;28;20204;-66
2021/10/14 05:27:20;;;;;;;7.23;5.57;;;7.20;99.90;;;;;;5096020;28;20634;-66
2021/10/14 05:29:46;;;;;;;6.80;6.03;;;7.20;99.90;;;;;;5095797;28;20217;-66
2021/10/14 05:32:13;;;;;;;6.43;5.80;;;7.20;99.90;;;;;;5097470;28;20212;-66
2021/10/14 05:34:40;;;;;;;5.87;5.27;;;7.10;99.90;;;;;;5096335;28;20208;-65
2021/10/14 05:37:08;;;;;;;5.83;4.97;;;7.10;99.90;;;;;;5096233;28;20208;-65
2021/10/14 05:39:35;;;;;;;6.07;4.80;;;7.10;99.90;;;;;;5095586;28;20212;-66
2021/10/14 05:42:02;;;;;;;6.80;5.20;;;7.20;99.90;;;;;;5096144;28;20503;-66
2021/10/14 05:44:29;;;;;;;4.80;4.30;;;7.10;99.90;;;;;;5096023;28;20621;-66
2021/10/14 05:46:55;;;;;;;6.83;4.73;;;7.00;99.90;;;;;;5095039;28;20724;-66
2021/10/14 05:49:22;;;;;;;6.40;4.43;;;7.10;99.90;;;;;;5095632;28;20208;-66
2021/10/14 05:51:49;;;;;;;7.27;4.80;;;7.10;99.90;;;;;;5097410;28;20205;-66
2021/10/14 05:54:17;;;;;;;6.13;4.10;;;7.10;99.90;;;;;;5096729;28;20255;-66
2021/10/14 05:56:43;;;;;;;5.00;4.23;;;7.10;99.90;;;;;;5095615;28;20716;-66
2021/10/14 05:59:10;;;;;;;7.33;4.80;;;7.20;99.90;;;;;;5095366;28;20213;-66
2021/10/14 06:01:37;;;;;;;4.70;4.17;;;7.10;99.90;;;;;;5095098;28;20207;-66
2021/10/14 06:04:04;;;;;;;4.53;4.00;;;7.10;99.90;;;;;;5094906;28;20228;-66
2021/10/14 06:06:31;;;;;;;5.80;4.53;;;6.90;99.90;;;;;;5094988;28;20208;-67
2021/10/14 06:08:58;;;;;;;5.73;4.30;;;7.00;99.90;;;;;;5094813;28;20576;-67
2021/10/14 06:11:26;;;;;;;5.77;4.97;;;7.10;99.90;;;;;;5094461;28;20200;-67
2021/10/14 06:13:53;;;;;;;5.20;4.37;;;7.10;99.90;;;;;;5094065;28;20231;-67
2021/10/14 06:16:19;;;;;;;6.07;4.47;;;7.20;99.90;;;;;;5094183;28;20604;-67
2021/10/14 06:18:46;;;;;;;7.30;5.10;;;7.40;99.90;;;;;;5093930;28;20239;-62
2021/10/14 06:21:13;;;;;;;5.30;4.33;;;7.60;99.90;;;;;;5093774;28;20204;-62
2021/10/14 06:23:40;;;;;;;6.70;4.73;;;7.70;99.90;;;;;;5093558;28;20224;-60
2021/10/14 06:26:06;;;;;;;5.83;4.80;;;7.80;99.90;;;;;;5093739;28;20253;-60
2021/10/14 06:28:34;;;;;;;6.23;4.63;;;8.00;99.90;;;;;;5093507;28;20211;-61
2021/10/14 06:31:01;;;;;;;5.17;3.70;;;8.20;99.90;;;;;;5093463;28;20209;-60
2021/10/14 06:33:28;;;;;;;4.23;3.80;;;8.10;99.90;;;;;;5107105;22;20231;-61
2021/10/14 06:35:55;;;;;;;6.47;4.00;;;8.10;99.90;;;;;;5073051;28;20229;-61
2021/10/14 06:38:21;;;;;;;4.30;3.87;;;8.10;99.90;;;;;;5071753;28;20745;-61
2021/10/14 06:40:48;;;;;;;4.77;4.20;;;8.20;99.90;;;;;;5073018;28;20209;-61
2021/10/14 06:43:15;;;;;;;6.43;3.87;;;8.30;99.90;;;;;;5072745;28;20229;-61
2021/10/14 06:45:43;;;;;;;4.43;3.90;;;8.40;99.90;;;;;;5072742;28;20201;-60
2021/10/14 06:48:10;;;;;;;6.40;3.70;;;8.30;99.90;;;;;;5072486;28;20213;-60
2021/10/14 06:50:37;;;;;;;5.53;4.30;;;8.40;99.90;;;;;;5072643;28;20570;-61
2021/10/14 06:53:08;;;;;;;7.00;4.73;;;8.50;99.90;;;;;;5072289;28;20724;-60
2021/10/14 06:55:35;;;;;;;5.17;4.10;;;8.70;99.90;;;;;;5072555;28;20311;-61
2021/10/14 06:58:02;;;;;;;5.70;4.17;;;8.80;99.90;;;;;;5072290;28;20201;-60
2021/10/14 07:00:29;;;;;;;4.93;3.83;;;8.80;99.90;;;;;;5072288;28;20645;-60
2021/10/14 07:02:57;;;;;;;6.17;4.33;;;8.90;99.90;;;;;;5072295;28;20229;-61
2021/10/14 07:05:23;;;;;;;9.37;3.80;;;9.00;99.90;;;;;;5072096;28;20209;-61
2021/10/14 07:07:50;;;;;;;5.47;3.43;;;9.00;99.90;;;;;;5072056;28;20219;-61
2021/10/14 07:10:17;;;;;;;4.67;4.07;;;9.00;99.90;;;;;;5072356;28;20301;-60
2021/10/14 07:12:45;;;;;;;8.23;4.93;;;9.00;99.90;;;;;;5072116;28;20232;-61
2021/10/14 07:15:11;;;;;;;5.20;4.17;;;9.00;99.90;;;;;;5071743;28;20220;-60
2021/10/14 07:17:38;;;;;;;4.97;4.40;;;9.10;99.90;;;;;;5071990;28;20204;-61
2021/10/14 07:20:08;;;;;;;6.50;4.80;;;9.30;99.90;;;;;;5071765;28;20201;-60
2021/10/14 07:22:34;;;;;;;4.10;3.63;;;9.40;99.90;;;;;;5072212;28;20208;-60
2021/10/14 07:25:01;;;;;;;4.70;3.40;;;9.50;99.90;;;;;;5071720;28;20673;-60
2021/10/14 07:27:28;;;;;;;4.33;3.93;;;9.50;99.90;;;;;;5071938;28;20212;-61
2021/10/14 07:29:55;;;;;;;6.57;4.63;;;9.60;99.90;;;;;;5071681;28;20718;-63
2021/10/14 07:32:21;;;;;;;6.33;3.83;;;10.00;99.90;;;;;;5071583;28;20212;-60
2021/10/14 07:34:48;;;;;;;4.73;3.60;;;10.10;99.90;;;;;;5071603;28;20626;-61
2021/10/14 07:37:19;;;;;;;8.87;4.33;;;10.50;99.90;;;;;;5071717;28;20281;-61
2021/10/14 07:39:46;;;;;;;8.00;3.80;;;10.80;99.90;;;;;;5071678;28;20212;-60
2021/10/14 07:42:13;;;;;;;4.50;3.50;;;11.10;99.90;;;;;;5071750;28;20236;-61
2021/10/14 07:44:40;;;;;;;6.27;3.83;;;11.40;99.90;;;;;;5071351;28;20746;-60
2021/10/14 07:47:07;;;;;;;7.03;3.93;;;11.50;99.90;;;;;;5071663;28;20561;-61
2021/10/14 07:49:33;;;;;;;13.27;4.70;;;11.70;99.90;;;;;;5071589;28;20212;-61
2021/10/14 07:52:00;;;;;;;9.50;2.90;;;11.80;99.90;;;;;;5071525;28;20217;-61
2021/10/14 07:54:28;;;;;;;4.80;2.80;;;12.00;99.90;;;;;;5071354;28;20225;-61
2021/10/14 07:56:55;;;;;;;9.73;3.50;;;12.20;99.90;;;;;;5071448;28;20633;-61
2021/10/14 07:59:22;;;;;;;7.53;3.60;;;12.00;99.90;;;;;;5071285;28;20208;-61
2021/10/14 08:01:48;;;;;;;6.83;3.47;;;11.90;99.90;;;;;;5071514;28;20310;-60
2021/10/14 08:04:15;;;;;;;4.77;3.40;;;11.90;99.90;;;;;;5071244;28;20225;-60
2021/10/14 08:06:42;;;;;;;6.90;3.90;;;12.10;99.90;;;;;;5071412;28;20208;-61
2021/10/14 08:09:08;;;;;;;6.17;3.67;;;12.30;99.90;;;;;;5071852;28;20283;-61
2021/10/14 08:11:36;;;;;;;5.93;3.60;;;12.60;99.90;;;;;;5071348;28;20201;-60
2021/10/14 08:14:03;;;;;;;4.43;3.10;;;12.80;99.90;;;;;;5070918;28;20713;-60
2021/10/14 08:16:30;;;;;;;6.07;3.40;;;13.00;99.90;;;;;;5070980;28;20282;-61
2021/10/14 08:18:57;;;;;;;4.93;3.17;;;13.00;99.90;;;;;;5071129;28;20295;-61
2021/10/14 08:21:23;;;;;;;13.30;3.87;;;13.20;99.90;;;;;;5071012;28;20661;-60
2021/10/14 08:23:50;;;;;;;8.80;3.73;;;13.30;99.90;;;;;;5070669;28;20712;-61
2021/10/14 08:26:17;;;;;;;6.13;3.23;;;13.30;99.90;;;;;;5070790;28;20201;-60
2021/10/14 08:28:45;;;;;;;6.50;3.30;;;13.40;99.90;;;;;;5070701;28;20667;-60
2021/10/14 08:31:12;;;;;;;3.70;3.23;;;13.50;99.90;;;;;;5071185;28;20213;-61
2021/10/14 08:33:38;;;;;;;5.83;3.60;;;13.80;99.90;;;;;;5070719;28;20605;-61
2021/10/14 08:36:06;;;;;;;4.10;3.20;;;14.00;99.90;;;;;;5071046;28;20302;-61
2021/10/14 08:38:33;;;;;;;6.47;3.60;;;14.30;99.90;;;;;;5070966;28;20208;-61
2021/10/14 08:41:00;;;;;;;4.80;3.00;;;14.50;99.90;;;;;;5071194;28;20216;-62
2021/10/14 08:43:32;;;;;;;3.20;2.73;;;14.60;99.90;;;;;;5070459;28;20274;-61
2021/10/14 08:46:02;;;;;;;3.73;2.47;;;14.70;99.90;;;;;;5070886;28;20616;-61
2021/10/14 08:48:30;;;;;;;3.47;2.80;;;14.80;99.90;;;;;;5070841;28;20205;-61
2021/10/14 08:50:56;;;;;;;3.80;2.30;;;14.90;99.90;;;;;;5070866;28;20575;-61
2021/10/14 08:53:23;;;;;;;3.47;2.40;;;15.00;99.90;;;;;;5070458;28;20591;-61
2021/10/14 08:55:50;;;;;;;4.13;2.73;;;15.00;99.90;;;;;;5070589;28;20225;-61
2021/10/14 08:58:16;;;;;;;2.97;2.17;;;15.20;99.90;;;;;;5070820;28;20208;-61
2021/10/14 09:01:05;;;;;;;4.60;2.53;;;15.30;99.90;;;;;;5071739;28;20208;-60
2021/10/14 09:03:34;;;;;;;4.47;2.00;;;15.30;99.90;;;;;;5074473;28;20220;-61
2021/10/14 09:06:01;;;;;;;4.70;2.40;;;15.30;99.90;;;;;;5074619;28;20700;-61
2021/10/14 09:08:40;;;;;;;4.53;2.10;;;15.10;99.90;;;;;;5074532;28;20258;-61
2021/10/14 09:11:12;;;;;;;5.13;2.73;;;15.00;99.90;;;;;;5075107;28;20354;-61
2021/10/14 09:13:43;;;;;;;6.10;2.63;;;14.90;99.90;;;;;;5074869;28;20569;-60
2021/10/14 09:16:29;;;;;;;4.33;2.60;;;15.10;99.90;;;;;;5074704;28;20228;-61
2021/10/14 09:19:09;;;;;;;3.33;2.40;;;15.30;99.90;;;;;;5074410;28;20567;-59
2021/10/14 09:21:36;;;;;;;3.33;2.27;;;15.50;99.90;;;;;;5074378;28;20200;-61
2021/10/14 09:24:25;;;;;;;3.57;2.40;;;15.80;99.90;;;;;;5074287;28;20220;-60
2021/10/14 09:26:53;;;;;;;3.27;2.17;;;16.10;99.90;;;;;;5074540;28;20605;-60
2021/10/14 09:29:22;;;;;;;8.00;3.23;;;16.20;99.90;;;;;;5073781;28;20664;-60
2021/10/14 09:31:55;;;;;;;3.83;2.37;;;16.40;99.90;;;;;;5074216;28;20204;-59
2021/10/14 09:34:27;;;;;;;4.20;2.30;;;16.60;99.90;;;;;;5074180;28;20229;-61
2021/10/14 09:36:54;;;;;;;4.37;2.50;;;16.80;99.90;;;;;;5073896;28;20220;-62
2021/10/14 09:39:21;;;;;;;5.87;2.50;;;17.00;99.90;;;;;;5074048;28;20223;-61
2021/10/14 09:41:49;;;;;;;5.33;2.77;;;17.00;99.90;;;;;;5073796;28;20205;-62
2021/10/14 09:44:17;;;;;;;2.33;1.97;;;17.10;99.90;;;;;;5073714;28;20298;-61
2021/10/14 09:46:45;;;;;;;4.63;2.40;;;17.00;99.90;;;;;;5073748;28;20656;-61
2021/10/14 09:49:14;;;;;;;4.00;2.60;;;16.90;99.90;;;;;;5073680;28;20212;-61
2021/10/14 09:51:43;;;;;;;3.27;2.37;;;16.70;99.90;;;;;;5073709;28;20220;-61
2021/10/14 09:54:10;;;;;;;8.13;2.60;;;16.60;99.90;;;;;;5073899;28;20252;-61
2021/10/14 09:56:37;;;;;;;4.23;2.70;;;16.70;99.90;;;;;;5073617;28;20251;-61
2021/10/14 09:59:05;;;;;;;5.90;2.87;;;16.80;99.90;;;;;;5073592;28;20680;-60
2021/10/14 10:01:34;;;;;;;8.33;3.10;;;16.70;99.90;;;;;;5073663;28;20212;-61
2021/10/14 10:04:02;;;;;;;4.03;2.57;;;16.50;99.90;;;;;;5073338;28;20244;-60
2021/10/14 10:06:30;;;;;;;4.00;3.10;;;16.10;99.90;;;;;;5073383;28;20223;-60
2021/10/14 10:09:00;;;;;;;6.43;3.87;;;15.90;99.90;;;;;;5073219;28;20213;-60
2021/10/14 10:11:29;;;;;;;3.40;2.43;;;16.00;99.90;;;;;;5073163;28;20204;-60
2021/10/14 10:13:58;;;;;;;3.60;2.50;;;16.20;99.90;;;;;;5072050;28;20221;-61
2021/10/14 10:16:27;;;;;;;5.67;2.60;;;16.40;99.90;;;;;;5072990;28;20312;-61
2021/10/14 10:18:55;;;;;;;3.50;2.30;;;16.70;99.90;;;;;;5073043;28;20205;-61
2021/10/14 10:21:41;;;;;;;5.63;2.73;;;17.00;99.90;;;;;;5073118;28;20220;-61
2021/10/14 10:24:23;;;;;;;3.40;2.30;;;17.30;99.90;;;;;;5073307;28;20232;-61
2021/10/14 10:26:51;;;;;;;3.73;2.30;;;17.60;99.90;;;;;;5071695;28;20652;-61
2021/10/14 10:29:41;;;;;;;5.22;2.25;;;17.90;99.90;;;;;;5072918;28;20545;-61
2021/10/14 10:32:17;;;;;;;5.55;2.60;;;18.10;99.90;;;;;;5073321;28;20211;-61
2021/10/14 10:35:05;;;;;;;4.53;2.38;;;18.50;99.90;;;;;;5071085;28;20844;-57
2021/10/14 10:37:41;;;;;;;4.28;3.80;;;18.70;99.90;;;;;;5072802;28;20316;-59
2021/10/14 10:40:22;;;;;;;3.85;2.20;;;18.90;99.90;;;;;;5072650;28;20208;-58
2021/10/14 10:42:53;;;;;;;4.75;2.30;;;19.00;99.30;;;;;;5073029;28;20225;-63
2021/10/14 10:45:22;;;;;;;3.85;2.55;;;19.30;99.10;;;;;;5055969;28;20673;-60
2021/10/14 10:48:00;;;;;;;7.63;2.50;;;19.50;98.60;;;;;;5052849;28;20312;-57
2021/10/14 10:50:45;;;;;;;6.63;2.60;;;19.50;98.40;;;;;;5053598;28;20209;-58
2021/10/14 10:53:13;;;;;;;3.28;2.67;;;19.50;98.40;;;;;;5053074;28;20236;-58
2021/10/14 10:55:43;;;;;;;5.45;2.30;;;19.40;98.50;;;;;;5052988;28;20201;-60
2021/10/14 10:58:11;;;;;;;4.60;2.60;;;19.40;98.90;;;;;;5063262;28;20228;-59
2021/10/14 11:00:40;;;;;;;7.75;5.28;;;19.50;98.10;;;;;;5074301;28;20262;-59
2021/10/14 11:03:10;;;;;;;5.90;3.08;;;19.30;98.60;;;;;;5073648;28;20256;-59
2021/10/14 11:05:45;;;;;;;4.80;2.85;;;19.00;98.90;;;;;;5073428;28;20212;-61
2021/10/14 11:08:16;;;;;;;6.03;3.17;;;19.20;98.50;;;;;;5072849;28;20211;-59
2021/10/14 11:10:43;;;;;;;4.15;2.70;;;19.50;98.80;;;;;;5072739;28;20208;-59
2021/10/14 11:13:09;;;;;;;4.90;2.45;;;19.70;97.70;;;;;;5072404;28;20232;-57
2021/10/14 11:15:36;;;;;;;5.28;2.60;;;19.60;97.90;;;;;;5071554;28;20209;-61
2021/10/14 11:18:04;;;;;;;4.95;2.55;;;19.60;97.90;;;;;;5071952;28;20639;-58
2021/10/14 11:20:34;;;;;;;4.20;2.80;;;19.60;98.10;;;;;;5071858;28;20209;-61
2021/10/14 11:23:05;;;;;;;6.65;2.90;;;19.70;97.50;;;;;;5071696;28;20282;-58
2021/10/14 11:25:32;;;;;;;5.30;3.22;;;20.10;97.20;;;;;;5071564;28;20665;-58
2021/10/14 11:28:07;;;;;;;7.43;3.60;;;20.30;96.90;;;;;;5071815;28;20209;-57
2021/10/14 11:30:44;;;;;;;6.75;3.10;;;20.40;96.40;;;;;;5071936;28;20354;-58
2021/10/14 11:33:12;;;;;;;5.38;2.97;;;20.50;96.50;;;;;;5071638;28;20319;-60
2021/10/14 11:35:41;;;;;;;4.72;2.85;;;20.60;95.90;;;;;;5071658;28;20576;-59
2021/10/14 11:38:09;;;;;;;5.28;3.30;;;20.60;96.20;;;;;;5071533;28;20221;-58
2021/10/14 11:40:37;;;;;;;6.65;2.85;;;20.60;96.20;;;;;;5071364;28;20209;-58
2021/10/14 11:43:04;;;;;;;3.78;2.80;;;20.50;95.80;;;;;;5071182;28;20735;-59
2021/10/14 11:45:31;;;;;;;3.97;2.72;;;20.40;95.50;;;;;;5071126;28;20200;-60
2021/10/14 11:47:57;;;;;;;6.78;3.10;;;20.40;95.80;;;;;;5071194;28;20208;-59
2021/10/14 11:50:25;;;;;;;4.18;2.92;;;20.30;95.50;;;;;;5071163;28;20205;-60
2021/10/14 11:53:04;;;;;;;4.25;2.70;;;20.00;95.70;;;;;;5071083;28;20712;-58
2021/10/14 11:55:31;;;;;;;7.00;2.60;;;19.50;96.70;;;;;;5071463;28;20258;-59
2021/10/14 11:58:00;;;;;;;7.25;4.35;;;19.20;97.10;;;;;;5071632;28;20224;-57
2021/10/14 12:00:29;;;;;;;5.90;3.00;;;19.40;96.50;;;;;;5071604;28;20216;-57
2021/10/14 12:02:57;;;;;;;5.60;3.10;;;19.60;96.50;;;;;;5071557;28;20221;-58
2021/10/14 12:05:24;;;;;;;4.82;3.10;;;19.90;96.40;;;;;;5071142;28;20209;-57
2021/10/14 12:07:53;;;;;;;7.15;3.17;;;20.00;95.80;;;;;;5071309;28;20228;-57
2021/10/14 12:10:35;;;;;;;5.00;2.63;;;19.90;96.10;;;;;;5071233;28;20208;-59
2021/10/14 12:13:03;;;;;;;4.13;2.05;;;19.60;96.40;;;;;;5071441;28;20228;-58
2021/10/14 12:15:30;;;;;;;5.15;2.20;;;19.50;96.20;;;;;;5071083;28;20734;-58
2021/10/14 12:17:57;;;;;;;3.50;2.13;;;19.40;96.20;;;;;;5070666;28;20221;-56
2021/10/14 12:20:25;;;;;;;3.80;2.20;;;19.40;96.00;;;;;;5070931;28;20684;-57
2021/10/14 12:22:53;;;;;;;4.15;2.25;;;19.40;96.20;;;;;;5071002;28;20708;-58
2021/10/14 12:25:25;;;;;;;5.85;1.90;;;19.60;96.10;;;;;;5071255;28;20213;-57
2021/10/14 12:27:56;;;;;;;4.30;2.00;;;19.80;96.10;;;;;;5070969;28;20665;-58
2021/10/14 12:30:27;;;;;;;4.65;2.10;;;19.80;96.10;;;;;;5071068;28;20338;-57
2021/10/14 12:32:56;;;;;;;4.25;2.00;;;19.50;96.70;;;;;;5094928;22;20228;-62
2021/10/14 12:35:28;;;;;;;3.88;2.00;;;19.40;95.40;;;;;;5070155;28;20213;-62
2021/10/14 12:38:09;;;;;;;3.88;2.30;;;19.10;96.40;;;;;;5070440;28;20217;-62
2021/10/14 12:40:42;;;;;;;4.07;2.20;;;19.00;97.30;;;;;;5070475;28;20212;-61
2021/10/14 12:43:17;;;;;;;5.72;2.83;;;19.00;97.50;;;;;;5070482;28;20267;-62
2021/10/14 12:45:58;;;;;;;3.92;2.28;;;19.10;97.10;;;;;;5070709;28;20337;-62
2021/10/14 12:48:36;;;;;;;4.60;2.65;;;19.00;97.20;;;;;;5070740;28;20205;-62
2021/10/14 12:51:12;;;;;;;5.05;2.58;;;18.60;97.90;;;;;;5070637;28;20204;-61
2021/10/14 12:53:42;;;;;;;5.70;2.53;;;18.50;98.40;;;;;;5070485;28;20248;-61
2021/10/14 12:56:10;;;;;;;6.15;2.53;;;18.40;98.80;;;;;;5070698;28;20212;-61
2021/10/14 12:58:38;;;;;;;5.10;3.00;;;18.60;99.00;;;;;;5070181;28;20598;-62